Time;durP1;ratioP1;P1;durP2;ratioP2;P2;SDS_P1;SDS_P2;PMS_P1;PMS_P2;Temp;Humidity;BMP_temperature;BMP_pressure;BME280_temperature;BME280_humidity;BME280_pressure;Samples;Min_cycle;Max_cycle;Signal;HPM_P1;HPM_P2
2022/04/18 00:00:35;;;;;;;5.22;2.75;;;;;;;5.29;57.88;99812.78;4998640;28;20042;-52
2022/04/18 00:03:03;;;;;;;4.25;2.50;;;;;;;5.30;56.48;99811.78;4998505;28;20243;-50
2022/04/18 00:05:30;;;;;;;8.38;2.95;;;;;;;5.18;58.14;99808.81;4999541;28;20457;-52
2022/04/18 00:07:55;;;;;;;4.25;2.50;;;;;;;5.09;60.23;99807.31;4992089;28;20033;-52
2022/04/18 00:10:21;;;;;;;5.28;2.78;;;;;;;4.91;58.69;99808.59;4993241;28;20461;-53
2022/04/18 00:12:46;;;;;;;6.40;3.05;;;;;;;4.68;60.81;99811.47;4988704;28;20034;-50
2022/04/18 00:15:12;;;;;;;4.55;2.75;;;;;;;4.70;63.49;99803.31;4993987;28;20034;-51
2022/04/18 00:17:37;;;;;;;6.35;2.70;;;;;;;4.53;62.58;99806.22;4997630;28;20030;-52
2022/04/18 00:20:03;;;;;;;5.50;2.30;;;;;;;4.70;61.99;99811.28;4993255;28;20045;-53
2022/04/18 00:22:29;;;;;;;4.25;2.22;;;;;;;4.78;59.36;99805.84;4986185;28;20031;-53
2022/04/18 00:24:54;;;;;;;4.30;2.78;;;;;;;4.93;58.50;99795.97;4993772;28;20029;-53
2022/04/18 00:27:19;;;;;;;4.50;2.60;;;;;;;4.98;58.33;99796.19;4991504;28;20042;-50
2022/04/18 00:29:47;;;;;;;5.93;3.00;;;;;;;4.97;58.96;99789.25;4987964;28;20049;-50
2022/04/18 00:32:14;;;;;;;7.20;3.03;;;;;;;4.92;59.46;99791.66;4987481;28;20048;-49
2022/04/18 00:34:39;;;;;;;4.78;2.63;;;;;;;4.76;59.16;99781.31;4986514;28;20529;-51
2022/04/18 00:37:04;;;;;;;4.75;2.60;;;;;;;4.54;61.27;99778.69;4987500;28;20046;-51
2022/04/18 00:39:30;;;;;;;7.18;3.10;;;;;;;4.23;63.97;99781.59;4994097;28;20092;-50
2022/04/18 00:41:55;;;;;;;6.85;3.40;;;;;;;3.81;67.94;99783.16;4997020;28;20042;-50
2022/04/18 00:44:21;;;;;;;4.70;3.20;;;;;;;3.51;68.33;99774.41;4992193;28;20049;-52
2022/04/18 00:46:46;;;;;;;4.78;3.10;;;;;;;3.53;68.24;99771.59;4991937;28;20042;-52
2022/04/18 00:49:12;;;;;;;5.00;3.75;;;;;;;3.51;67.99;99770.94;4995582;28;20101;-50
2022/04/18 00:51:37;;;;;;;5.38;3.22;;;;;;;3.62;69.38;99773.97;4987787;28;20043;-49
2022/04/18 00:54:02;;;;;;;6.13;3.10;;;;;;;3.77;67.25;99770.44;4994766;28;20026;-49
2022/04/18 00:56:28;;;;;;;7.57;3.53;;;;;;;3.57;67.20;99767.53;4988367;28;20043;-50
2022/04/18 00:58:54;;;;;;;7.63;3.35;;;;;;;3.50;68.71;99764.81;4993560;28;20041;-52
2022/04/18 01:01:20;;;;;;;6.65;3.38;;;;;;;3.28;68.76;99763.09;4991600;28;20221;-49
2022/04/18 01:03:46;;;;;;;6.60;3.40;;;;;;;3.30;69.15;99758.44;4995979;28;20034;-50
2022/04/18 01:06:11;;;;;;;6.45;3.13;;;;;;;3.24;68.99;99749.34;4993214;28;20058;-50
2022/04/18 01:08:37;;;;;;;7.07;3.58;;;;;;;3.12;69.33;99750.81;4989069;28;20050;-51
2022/04/18 01:11:05;;;;;;;5.47;3.22;;;;;;;3.05;70.03;99753.38;4993243;28;20046;-52
2022/04/18 01:13:30;;;;;;;4.90;2.90;;;;;;;3.12;67.84;99746.34;5000471;28;20099;-50
2022/04/18 01:15:56;;;;;;;6.20;3.00;;;;;;;3.24;67.30;99744.06;4988350;28;20053;-49
2022/04/18 01:18:22;;;;;;;7.90;3.17;;;;;;;3.36;66.76;99741.78;4987957;28;20472;-48
2022/04/18 01:20:47;;;;;;;5.93;3.30;;;;;;;3.32;68.33;99743.16;4987532;28;20046;-52
2022/04/18 01:23:13;;;;;;;7.47;3.28;;;;;;;3.39;66.46;99736.13;4987909;28;20030;-51
2022/04/18 01:31:07;;;;;;;4.78;2.85;;;;;;;3.22;67.24;99731.00;4987193;28;20069;-50
2022/04/18 01:33:32;;;;;;;6.97;3.17;;;;;;;3.29;71.20;99730.28;4987633;28;20030;-53
2022/04/18 01:35:57;;;;;;;5.07;3.08;;;;;;;3.30;65.81;99724.00;4994794;28;20560;-50
2022/04/18 01:38:23;;;;;;;6.22;3.17;;;;;;;3.30;65.99;99721.34;4988015;28;20045;-50
2022/04/18 01:40:49;;;;;;;4.50;2.85;;;;;;;3.33;65.76;99723.63;4994108;28;20165;-52
2022/04/18 01:43:14;;;;;;;8.10;3.00;;;;;;;3.40;66.06;99722.69;4995300;28;20150;-51
2022/04/18 01:45:40;;;;;;;6.57;3.20;;;;;;;3.40;64.99;99724.53;5001990;28;20092;-51
2022/04/18 01:48:05;;;;;;;5.90;3.53;;;;;;;3.36;66.87;99720.59;4993021;28;20457;-51
2022/04/18 01:50:31;;;;;;;5.70;3.53;;;;;;;3.24;66.95;99723.72;4991794;28;20122;-49
2022/04/18 01:52:56;;;;;;;6.00;3.08;;;;;;;3.15;68.25;99730.09;4991086;28;20034;-52
2022/04/18 01:55:22;;;;;;;5.13;3.00;;;;;;;2.88;69.46;99728.88;4994465;28;20045;-50
2022/04/18 01:57:47;;;;;;;5.40;2.90;;;;;;;2.84;68.78;99727.56;4998492;28;20025;-52
2022/04/18 02:00:12;;;;;;;5.95;3.33;;;;;;;2.81;69.16;99726.13;5003218;28;20030;-52
2022/04/18 02:02:38;;;;;;;8.02;3.25;;;;;;;2.93;67.40;99720.41;4999380;28;20468;-53
2022/04/18 02:05:06;;;;;;;5.22;3.00;;;;;;;3.11;66.86;99720.84;4990689;28;20169;-53
2022/04/18 02:07:32;;;;;;;8.30;3.33;;;;;;;3.18;66.58;99719.13;4990868;28;20334;-52
2022/04/18 02:09:57;;;;;;;4.93;2.88;;;;;;;3.18;68.00;99718.31;4990487;28;20089;-51
2022/04/18 02:12:23;;;;;;;5.38;3.08;;;;;;;3.19;66.67;99715.47;4989207;28;20034;-52
2022/04/18 02:14:48;;;;;;;6.82;3.38;;;;;;;3.07;66.46;99724.03;4991347;28;20034;-50
2022/04/18 02:17:13;;;;;;;8.30;3.40;;;;;;;3.11;69.47;99717.38;4999443;28;20404;-50
2022/04/18 02:19:39;;;;;;;6.03;3.22;;;;;;;2.92;66.89;99711.63;4996852;28;20894;-50
2022/04/18 02:22:05;;;;;;;5.47;2.88;;;;;;;3.20;65.95;99718.97;4998376;28;20057;-53
2022/04/18 02:24:31;;;;;;;5.38;3.00;;;;;;;3.13;66.23;99724.16;4996728;28;20038;-49
2022/04/18 02:26:56;;;;;;;8.27;3.35;;;;;;;3.38;71.51;99715.94;4996591;28;20551;-52
2022/04/18 02:29:21;;;;;;;6.18;2.90;;;;;;;3.12;66.48;99717.22;4997408;28;20034;-50
2022/04/18 02:34:30;;;;;;;5.85;3.00;;;;;;;2.98;66.94;99728.63;4995037;28;20503;-50
2022/04/18 02:36:56;;;;;;;5.60;2.88;;;;;;;2.96;68.60;99730.63;4995491;28;20042;-50
2022/04/18 02:39:21;;;;;;;4.55;2.85;;;;;;;3.02;66.26;99724.59;4990459;28;20038;-49
2022/04/18 02:41:47;;;;;;;5.88;3.47;;;;;;;3.14;66.01;99722.31;4996215;28;20049;-51
2022/04/18 02:44:12;;;;;;;5.18;2.90;;;;;;;3.09;66.02;99712.25;4989967;28;20026;-51
2022/04/18 02:46:37;;;;;;;6.03;3.05;;;;;;;3.09;65.90;99714.09;4997764;28;20052;-49
2022/04/18 02:49:03;;;;;;;4.32;2.88;;;;;;;3.08;66.00;99713.28;4993016;28;20041;-51
2022/04/18 02:51:28;;;;;;;5.57;2.97;;;;;;;3.06;67.10;99709.97;4993863;28;20444;-50
2022/04/18 02:53:54;;;;;;;5.45;3.05;;;;;;;2.99;67.35;99715.19;4987948;28;20026;-50
2022/04/18 02:56:22;;;;;;;10.90;3.20;;;;;;;2.91;70.49;99711.81;4989846;28;20501;-52
2022/04/18 02:58:48;;;;;;;5.50;3.30;;;;;;;2.80;69.60;99705.94;4998488;28;20029;-50
2022/04/18 03:01:13;;;;;;;5.45;3.15;;;;;;;2.86;73.57;99708.88;4989761;28;20038;-51
2022/04/18 03:03:39;;;;;;;5.70;3.40;;;;;;;2.71;68.88;99706.19;4994964;28;20373;-50
2022/04/18 03:06:05;;;;;;;8.98;3.20;;;;;;;2.80;67.98;99697.19;4996435;28;20429;-52
2022/04/18 03:08:31;;;;;;;4.90;3.13;;;;;;;2.87;67.78;99689.31;4990279;28;20114;-51
2022/04/18 03:11:02;;;;;;;5.30;3.17;;;;;;;2.79;67.28;99688.41;4992717;28;20096;-49
2022/04/18 03:13:28;;;;;;;5.65;3.25;;;;;;;2.89;71.64;99688.13;4996015;28;20030;-49
2022/04/18 03:15:54;;;;;;;6.55;3.65;;;;;;;2.89;67.57;99689.97;4994036;28;20038;-51
2022/04/18 03:18:20;;;;;;;7.00;3.33;;;;;;;2.83;69.35;99678.28;4991732;28;20057;-51
2022/04/18 03:20:45;;;;;;;7.93;3.30;;;;;;;2.78;70.65;99684.13;4995466;28;20049;-50
2022/04/18 03:23:11;;;;;;;6.18;3.30;;;;;;;2.90;69.47;99689.81;4994130;28;20040;-52
2022/04/18 03:25:36;;;;;;;6.30;3.13;;;;;;;2.71;69.59;99682.38;4995841;28;20042;-53
2022/04/18 03:28:02;;;;;;;6.18;3.15;;;;;;;2.63;70.28;99685.13;4996125;28;20029;-49
2022/04/18 03:30:28;;;;;;;5.82;3.42;;;;;;;2.64;70.21;99676.97;4988425;28;20043;-52
2022/04/18 03:32:53;;;;;;;5.30;2.92;;;;;;;2.53;68.14;99666.84;4993729;28;20593;-50
2022/04/18 03:35:19;;;;;;;6.03;3.20;;;;;;;3.19;65.03;99662.47;4993271;28;20026;-52
2022/04/18 03:40:28;;;;;;;6.53;3.50;;;;;;;2.67;68.88;99671.34;4994039;28;20045;-50
2022/04/18 03:42:54;;;;;;;7.00;3.70;;;;;;;2.59;70.35;99666.94;4993388;28;20031;-50
2022/04/18 03:45:19;;;;;;;5.25;3.63;;;;;;;1.91;72.75;99662.53;4988677;28;20033;-52
2022/04/18 03:47:44;;;;;;;5.25;3.40;;;;;;;1.79;75.05;99662.09;4989412;28;20089;-50
2022/04/18 03:50:10;;;;;;;7.68;3.65;;;;;;;1.84;76.46;99658.94;4987844;28;20097;-50
2022/04/18 03:52:36;;;;;;;6.10;3.53;;;;;;;1.86;75.83;99660.41;4993493;28;20034;-50
2022/04/18 03:55:01;;;;;;;5.25;3.40;;;;;;;1.84;74.39;99653.66;4990335;28;20038;-50
2022/04/18 03:57:27;;;;;;;5.70;3.40;;;;;;;1.77;73.91;99655.34;4994010;28;20426;-52
2022/04/18 03:59:52;;;;;;;5.95;3.88;;;;;;;1.64;74.26;99653.28;4996374;28;20038;-52
2022/04/18 04:02:18;;;;;;;6.55;3.78;;;;;;;1.61;74.74;99648.34;4988214;28;20073;-50
2022/04/18 04:04:43;;;;;;;8.48;3.83;;;;;;;1.63;77.73;99647.19;4988875;28;20801;-50
2022/04/18 04:07:09;;;;;;;6.07;3.47;;;;;;;1.62;75.56;99647.34;4992350;28;20030;-52
2022/04/18 04:09:34;;;;;;;5.60;3.65;;;;;;;1.49;76.10;99648.72;4992609;28;20388;-51
2022/04/18 04:12:00;;;;;;;6.25;4.00;;;;;;;1.45;77.07;99647.44;4994145;28;20434;-53
2022/04/18 04:14:26;;;;;;;8.02;3.92;;;;;;;1.27;76.52;99644.22;4992600;28;20468;-53
2022/04/18 04:16:51;;;;;;;5.95;3.60;;;;;;;1.33;78.70;99648.81;4995399;28;20558;-52
2022/04/18 04:19:16;;;;;;;6.38;3.38;;;;;;;1.40;77.77;99651.59;4986988;28;20037;-52
2022/04/18 04:21:42;;;;;;;7.03;3.65;;;;;;;1.34;75.68;99652.28;4988160;28;20046;-50
2022/04/18 04:24:07;;;;;;;6.35;3.58;;;;;;;1.66;74.24;99648.66;4993579;28;20342;-52
2022/04/18 04:26:33;;;;;;;7.25;3.40;;;;;;;1.76;73.73;99657.16;4991187;28;20048;-51
2022/04/18 04:28:58;;;;;;;6.38;4.57;;;;;;;1.81;72.36;99659.28;4997305;28;20452;-53
2022/04/18 04:31:24;;;;;;;8.60;3.88;;;;;;;1.75;72.53;99655.53;4986857;28;20071;-50
2022/04/18 04:33:49;;;;;;;7.30;3.50;;;;;;;1.74;72.08;99651.22;4991887;28;20022;-50
2022/04/18 04:36:17;;;;;;;5.60;3.35;;;;;;;1.80;72.70;99647.91;4992079;28;20054;-52
2022/04/18 04:38:43;;;;;;;6.18;3.50;;;;;;;1.76;73.74;99643.13;4996602;28;20464;-53
2022/04/18 04:41:09;;;;;;;6.13;3.63;;;;;;;1.94;75.74;99648.97;4990353;28;20062;-51
2022/04/18 04:43:34;;;;;;;6.10;3.60;;;;;;;2.23;70.67;99642.13;4994077;28;20026;-52
2022/04/18 04:46:03;;;;;;;5.75;3.20;;;;;;;3.46;68.51;99652.22;4993732;28;20496;-51
2022/04/18 04:48:28;;;;;;;5.10;3.10;;;;;;;5.48;61.35;99649.09;4990593;28;20034;-51
2022/04/18 04:50:54;;;;;;;9.70;3.20;;;;;;;6.25;57.11;99654.00;4985960;28;20066;-52
2022/04/18 04:53:19;;;;;;;5.32;3.10;;;;;;;6.57;55.00;99667.53;4986422;28;20042;-49
2022/04/18 04:55:45;;;;;;;6.32;3.47;;;;;;;4.65;60.04;99657.84;4986015;28;20042;-50
2022/04/18 04:58:10;;;;;;;7.07;3.60;;;;;;;5.03;59.17;99652.16;4994172;28;20044;-50
2022/04/18 05:00:36;;;;;;;5.32;3.40;;;;;;;6.23;55.26;99653.38;4992794;28;20038;-50
2022/04/18 05:03:02;;;;;;;6.32;3.58;;;;;;;6.82;53.16;99654.41;4988149;28;20058;-52
2022/04/18 05:05:28;;;;;;;4.75;3.40;;;;;;;8.67;48.41;99661.69;4997227;28;20370;-52
2022/04/18 05:07:53;;;;;;;6.40;3.08;;;;;;;10.07;45.98;99660.06;4993372;28;20014;-52
2022/04/18 05:10:19;;;;;;;4.95;3.25;;;;;;;10.39;44.92;99665.19;4996328;28;20034;-50
2022/04/18 05:12:44;;;;;;;11.48;3.58;;;;;;;9.94;45.59;99666.41;4991711;28;20022;-50
2022/04/18 05:15:10;;;;;;;9.20;3.50;;;;;;;9.33;47.39;99664.72;4989868;28;20736;-52
2022/04/18 05:17:35;;;;;;;9.23;3.45;;;;;;;10.60;44.56;99672.66;4989798;28;20030;-52
2022/04/18 05:20:03;;;;;;;5.60;3.22;;;;;;;10.63;44.78;99676.72;5001119;28;20444;-50
2022/04/18 05:22:28;;;;;;;4.82;3.22;;;;;;;10.82;43.89;99672.91;4998012;28;20041;-54
2022/04/18 05:24:55;;;;;;;6.20;3.10;;;;;;;12.05;41.28;99678.13;4996300;28;20400;-50
2022/04/18 05:27:21;;;;;;;5.45;2.83;;;;;;;12.11;41.33;99690.63;4993239;28;20042;-51
2022/04/18 05:29:46;;;;;;;10.15;2.95;;;;;;;12.15;40.48;99689.06;4992621;28;20034;-51
2022/04/18 05:32:12;;;;;;;4.97;3.30;;;;;;;12.77;39.26;99692.78;5000026;28;20045;-53
2022/04/18 05:34:37;;;;;;;4.68;2.90;;;;;;;12.77;39.02;99692.78;4999526;28;20030;-49
2022/04/18 05:37:04;;;;;;;4.85;3.28;;;;;;;11.32;41.09;99693.84;4990847;28;20385;-51
2022/04/18 05:39:29;;;;;;;6.43;3.20;;;;;;;10.46;42.97;99692.66;4994748;28;20053;-52
2022/04/18 05:41:56;;;;;;;5.28;3.20;;;;;;;11.58;41.47;99687.16;5001997;28;20544;-51
2022/04/18 05:44:22;;;;;;;5.82;3.10;;;;;;;13.59;37.54;99689.38;5000572;28;20121;-53
2022/04/18 05:46:48;;;;;;;5.45;3.42;;;;;;;13.70;37.51;99695.69;4997992;28;20041;-52
2022/04/18 05:49:13;;;;;;;7.30;3.53;;;;;;;13.77;37.27;99696.31;4997226;28;20026;-52
2022/04/18 05:51:38;;;;;;;5.10;3.42;;;;;;;14.07;36.79;99695.00;4993875;28;20512;-50
2022/04/18 05:54:04;;;;;;;5.70;3.67;;;;;;;15.96;33.67;99693.59;4992222;28;20026;-53
2022/04/18 05:56:30;;;;;;;8.00;3.38;;;;;;;15.84;33.60;99690.31;4991213;28;20514;-51
2022/04/18 05:58:56;;;;;;;5.97;3.33;;;;;;;16.03;33.87;99696.06;4994295;28;20453;-53
2022/04/18 06:01:21;;;;;;;6.60;3.33;;;;;;;15.28;34.99;99694.38;4999860;28;20516;-53
2022/04/18 06:03:47;;;;;;;6.68;3.67;;;;;;;16.54;33.57;99698.81;4995799;28;20034;-53
2022/04/18 06:06:13;;;;;;;7.50;3.80;;;;;;;16.53;34.01;99698.00;4990017;28;20077;-52
2022/04/18 06:08:38;;;;;;;6.00;3.50;;;;;;;16.77;32.81;99695.59;5000407;28;20030;-51
2022/04/18 06:11:04;;;;;;;7.95;3.30;;;;;;;16.23;33.69;99698.00;4994916;28;20042;-53
2022/04/18 06:13:29;;;;;;;7.88;3.80;;;;;;;16.49;32.54;99694.22;4999083;28;20036;-51
2022/04/18 06:15:55;;;;;;;5.38;3.20;;;;;;;16.79;32.51;99695.31;4993504;28;20046;-52
2022/04/18 06:18:20;;;;;;;5.72;3.05;;;;;;;15.56;34.20;99692.34;4990630;28;20088;-54
2022/04/18 06:20:45;;;;;;;7.68;3.25;;;;;;;15.93;34.42;99699.53;4996888;28;20061;-51
2022/04/18 06:23:11;;;;;;;5.85;3.10;;;;;;;15.41;35.80;99693.09;4992840;28;20055;-51
2022/04/18 06:25:36;;;;;;;7.72;3.63;;;;;;;16.12;34.80;99697.13;4996043;28;20042;-50
2022/04/18 06:28:02;;;;;;;5.68;3.53;;;;;;;16.80;33.91;99696.97;4995729;28;20042;-50
2022/04/18 06:30:27;;;;;;;5.55;3.50;;;;;;;16.70;33.48;99695.03;4994874;28;20049;-51
2022/04/18 06:32:53;;;;;;;6.25;3.55;;;;;;;16.47;33.99;99696.38;4990968;28;20026;-50
2022/04/18 06:35:19;;;;;;;7.40;3.40;;;;;;;16.85;33.56;99699.66;5001008;28;20076;-51
2022/04/18 06:37:44;;;;;;;9.20;3.70;;;;;;;16.15;34.88;99702.84;4992998;28;20068;-52
2022/04/18 06:40:09;;;;;;;5.28;3.35;;;;;;;16.79;32.41;99706.16;4998599;28;20163;-48
2022/04/18 06:42:38;;;;;;;6.78;3.70;;;;;;;16.18;33.88;99702.28;4998667;28;20042;-52
2022/04/18 06:45:03;;;;;;;6.43;3.45;;;;;;;16.92;32.78;99697.47;4994200;28;20071;-51
2022/04/18 06:47:29;;;;;;;7.07;3.70;;;;;;;17.97;31.62;99703.09;4994987;28;20038;-52
2022/04/18 06:49:54;;;;;;;6.35;3.58;;;;;;;18.20;30.93;99705.16;5000297;28;20026;-51
2022/04/18 06:52:22;;;;;;;9.45;3.28;;;;;;;17.13;32.68;99705.56;5003299;28;20038;-53
2022/04/18 06:54:47;;;;;;;5.65;3.40;;;;;;;17.17;32.57;99699.34;4993814;28;20056;-50
2022/04/18 06:57:13;;;;;;;7.43;4.15;;;;;;;17.26;32.62;99696.88;4997523;28;20449;-51
2022/04/18 06:59:38;;;;;;;9.55;3.85;;;;;;;17.18;32.79;99700.16;4993303;28;20034;-54
2022/04/18 07:02:04;;;;;;;7.55;3.85;;;;;;;17.57;32.92;99705.72;4993383;28;20129;-53
2022/04/18 07:04:29;;;;;;;5.70;3.70;;;;;;;18.40;32.08;99700.69;4994158;28;20495;-53
2022/04/18 07:06:55;;;;;;;6.80;3.58;;;;;;;17.36;33.61;99704.97;4993227;28;20044;-53
2022/04/18 07:09:20;;;;;;;6.47;4.20;;;;;;;16.66;34.31;99702.06;4989795;28;20030;-50
2022/04/18 07:11:46;;;;;;;14.25;8.50;;;;;;;17.92;32.52;99711.28;4989452;28;20050;-53
2022/04/18 07:14:12;;;;;;;8.85;5.10;;;;;;;17.65;32.99;99712.47;4989711;28;20038;-51
2022/04/18 07:16:38;;;;;;;6.50;3.60;;;;;;;18.06;32.69;99709.56;4989007;28;20131;-50
2022/04/18 07:19:04;;;;;;;7.78;4.07;;;;;;;18.21;31.66;99709.47;4989506;28;20480;-53
2022/04/18 07:21:30;;;;;;;7.15;3.97;;;;;;;18.37;31.26;99707.50;4994486;28;20041;-53
2022/04/18 07:23:56;;;;;;;8.23;3.90;;;;;;;17.76;31.64;99707.81;5001820;28;20527;-53
2022/04/18 07:26:21;;;;;;;6.45;3.97;;;;;;;17.71;31.69;99708.63;4993750;28;20069;-52
2022/04/18 07:28:47;;;;;;;7.85;4.55;;;;;;;17.69;31.66;99713.50;4989257;28;20026;-53
2022/04/18 07:31:12;;;;;;;7.68;4.32;;;;;;;17.46;32.08;99720.38;4994226;28;20412;-53
2022/04/18 07:33:38;;;;;;;9.20;4.20;;;;;;;17.60;32.34;99715.19;4991764;28;20029;-51
2022/04/18 07:36:03;;;;;;;10.38;4.13;;;;;;;17.72;31.69;99712.94;4998728;28;20141;-51
2022/04/18 07:41:14;;;;;;;7.22;3.95;;;;;;;18.31;32.02;99705.88;5000504;28;20064;-52
2022/04/18 07:43:40;;;;;;;13.95;4.18;;;;;;;17.22;32.18;99709.31;4989374;28;20635;-52
2022/04/18 07:46:05;;;;;;;7.55;3.70;;;;;;;16.43;34.16;99708.03;4995341;28;20038;-50
2022/04/18 07:48:31;;;;;;;6.63;4.20;;;;;;;15.82;35.59;99706.78;4992987;28;20026;-52
2022/04/18 07:53:41;;;;;;;6.93;4.15;;;;;;;14.21;38.69;99707.84;4992218;28;20104;-51
2022/04/18 07:56:06;;;;;;;8.38;4.13;;;;;;;15.23;37.54;99710.56;4993015;28;20128;-50
2022/04/18 07:58:32;;;;;;;7.50;4.00;;;;;;;16.11;36.25;99707.16;4989496;28;20464;-54
2022/04/18 08:00:57;;;;;;;8.35;4.13;;;;;;;16.15;36.94;99708.25;4992575;28;20505;-52
2022/04/18 08:03:23;;;;;;;6.68;3.90;;;;;;;16.95;35.62;99710.47;4995963;28;20030;-54
2022/04/18 08:05:48;;;;;;;11.65;4.47;;;;;;;15.74;37.33;99700.00;4988423;28;20527;-54
2022/04/18 08:08:13;;;;;;;7.70;4.10;;;;;;;16.86;36.00;99705.88;4970589;28;20162;-50
2022/04/18 08:10:39;;;;;;;5.78;3.67;;;;;;;17.42;33.66;99703.88;4993390;28;20045;-52
2022/04/18 08:13:04;;;;;;;8.25;3.95;;;;;;;15.98;36.73;99702.25;4993721;28;20131;-54
2022/04/18 08:15:31;;;;;;;7.03;3.72;;;;;;;16.54;36.58;99704.22;4997327;28;20164;-53
2022/04/18 08:17:57;;;;;;;6.10;4.25;;;;;;;17.44;34.88;99706.28;4998376;28;20524;-54
2022/04/18 08:20:22;;;;;;;12.10;4.40;;;;;;;17.40;35.79;99706.03;4995200;28;20065;-51
2022/04/18 08:22:47;;;;;;;6.28;3.80;;;;;;;16.52;36.71;99703.69;4992372;28;20047;-54
2022/04/18 08:25:13;;;;;;;6.47;3.95;;;;;;;16.61;37.02;99711.00;4991529;28;20464;-53
2022/04/18 08:27:38;;;;;;;6.13;4.00;;;;;;;17.00;36.55;99724.00;4988739;28;20027;-53
2022/04/18 08:30:04;;;;;;;6.25;3.92;;;;;;;17.61;35.39;99723.03;4990660;28;20133;-51
2022/04/18 08:32:36;;;;;;;7.28;4.00;;;;;;;16.69;36.89;99716.94;4996007;28;20550;-53
2022/04/18 08:35:02;;;;;;;9.18;3.90;;;;;;;17.51;35.98;99722.25;4987785;28;20042;-52
2022/04/18 08:37:27;;;;;;;6.45;3.80;;;;;;;17.85;34.75;99720.53;4992368;28;20422;-51
2022/04/18 08:39:53;;;;;;;7.30;4.20;;;;;;;17.10;36.30;99717.78;4988910;28;20031;-52
2022/04/18 08:42:19;;;;;;;6.75;3.97;;;;;;;17.17;35.93;99712.06;4988007;28;20074;-52
2022/04/18 08:44:44;;;;;;;6.68;3.75;;;;;;;17.21;36.07;99713.94;4986048;28;20022;-52
2022/04/18 08:52:43;;;;;;;7.90;3.80;;;;;;;17.75;35.21;99714.31;4987204;28;20096;-51
2022/04/18 08:52:45;;;;;;;9.48;4.20;;;;;;;17.11;35.55;99713.16;4990900;28;20153;-54
2022/04/18 08:55:11;;;;;;;6.30;4.18;;;;;;;17.51;34.97;99716.84;4993287;28;20038;-52
2022/04/18 08:57:36;;;;;;;8.02;3.60;;;;;;;17.72;34.59;99710.25;4999325;28;20022;-51
2022/04/18 09:00:02;;;;;;;6.07;3.78;;;;;;;18.09;33.61;99707.09;4990632;28;20038;-53
2022/04/18 09:02:28;;;;;;;6.22;3.85;;;;;;;17.73;34.16;99698.31;4991250;28;20093;-52
2022/04/18 09:04:53;;;;;;;10.50;4.30;;;;;;;17.47;35.12;99703.03;4992131;28;20061;-55
2022/04/18 09:07:19;;;;;;;6.32;3.90;;;;;;;17.07;35.36;99699.34;4992649;28;20038;-55
2022/04/18 09:09:44;;;;;;;5.95;3.60;;;;;;;17.57;35.18;99694.03;4995718;28;20125;-51
2022/04/18 09:12:20;;;;;;;5.72;3.83;;;;;;;17.59;34.53;99686.47;4985655;28;20051;-50
2022/04/18 09:14:50;;;;;;;6.65;4.00;;;;;;;18.03;34.60;99685.72;4991242;28;20030;-53
2022/04/18 09:17:31;;;;;;;;;;;;;;;16.78;36.09;99688.28;4990137;28;20125;-50
2022/04/18 09:20:08;;;;;;;5.82;3.53;;;;;;;17.72;36.12;99682.31;4996829;28;19954;-52
2022/04/18 09:22:43;;;;;;;5.93;3.80;;;;;;;18.63;33.51;99675.50;4988022;28;20048;-51
2022/04/18 09:25:19;;;;;;;5.47;3.90;;;;;;;18.05;35.09;99678.94;4991293;28;20512;-51
2022/04/18 09:27:55;;;;;;;7.93;4.05;;;;;;;17.10;34.80;99673.59;4994967;28;20068;-53
2022/04/18 09:30:21;;;;;;;7.80;3.90;;;;;;;17.55;35.73;99671.84;4986690;28;20057;-50
2022/04/18 09:32:59;;;;;;;6.45;4.20;;;;;;;18.57;33.61;99668.53;4995678;28;20030;-53
2022/04/18 09:35:25;;;;;;;7.53;3.88;;;;;;;19.54;31.70;99664.00;4987528;28;20035;-53
2022/04/18 09:37:51;;;;;;;8.40;4.68;;;;;;;19.25;32.53;99655.94;4987757;28;20085;-53
2022/04/18 09:40:21;;;;;;;6.78;3.58;;;;;;;18.77;33.78;99656.69;4993933;28;20026;-52
2022/04/18 09:42:47;;;;;;;6.15;3.55;;;;;;;19.10;32.12;99648.75;4989894;28;20022;-53
2022/04/18 09:45:12;;;;;;;5.57;3.40;;;;;;;19.47;29.39;99647.22;4988286;28;20429;-53
2022/04/18 09:47:37;;;;;;;5.97;3.80;;;;;;;18.74;31.03;99649.88;4993851;28;20022;-52
2022/04/18 09:50:58;;;;;;;5.50;3.50;;;;;;;18.96;30.31;99643.19;4995724;28;20026;-52
2022/04/18 09:53:02;;;;;;;6.90;3.80;;;;;;;19.42;30.74;99639.97;4998863;28;20463;-53
2022/04/18 09:55:29;;;;;;;6.32;4.03;;;;;;;18.34;32.67;99637.47;4993367;28;20058;-53
2022/04/18 09:57:54;;;;;;;7.22;4.00;;;;;;;18.19;34.50;99635.69;4992503;28;20037;-50
2022/04/18 10:00:20;;;;;;;7.00;3.70;;;;;;;18.63;33.59;99642.13;4992020;28;20037;-52
2022/04/18 10:02:45;;;;;;;9.10;4.00;;;;;;;17.71;33.21;99635.44;4987297;28;20032;-53
2022/04/18 10:05:10;;;;;;;6.85;3.35;;;;;;;19.28;30.86;99631.69;4995717;28;20075;-50
2022/04/18 10:07:36;;;;;;;5.15;3.17;;;;;;;19.76;30.97;99628.91;5003303;28;20069;-52
2022/04/18 10:10:01;;;;;;;5.63;3.70;;;;;;;18.18;31.51;99628.66;4994980;28;20499;-53
2022/04/18 10:12:27;;;;;;;5.85;3.53;;;;;;;18.25;32.60;99618.31;4973158;28;20026;-52
2022/04/18 10:14:52;;;;;;;5.75;3.85;;;;;;;18.81;32.03;99610.75;4990475;28;20471;-53
2022/04/18 10:17:18;;;;;;;7.15;3.65;;;;;;;17.74;31.42;99607.75;4990001;28;20125;-50
2022/04/18 10:20:14;;;;;;;6.75;3.50;;;;;;;17.55;31.95;99609.53;4973327;28;20026;-51
2022/04/18 10:23:06;;;;;;;6.68;3.60;;;;;;;17.78;33.23;99608.84;4990806;28;20070;-52
2022/04/18 10:26:00;;;;;;;7.57;3.60;;;;;;;17.92;32.15;99600.91;4994150;28;20603;-52
2022/04/18 10:28:29;;;;;;;9.95;4.10;;;;;;;17.71;32.21;99594.78;5018947;28;20141;-51
2022/04/18 10:30:57;;;;;;;6.18;3.75;;;;;;;19.10;30.27;99595.22;4974591;28;20040;-50
2022/04/18 10:33:23;;;;;;;5.47;3.50;;;;;;;19.27;30.52;99591.22;4990912;28;20141;-52
2022/04/18 10:36:02;;;;;;;9.18;3.85;;;;;;;18.22;30.36;99591.75;4990212;28;20045;-53
2022/04/18 10:38:29;;;;;;;10.48;3.92;;;;;;;18.88;31.28;99581.38;4994803;28;20014;-53
2022/04/18 10:44:07;;;;;;;7.32;3.65;;;;;;;19.80;29.16;99564.69;4996771;28;20053;-52
2022/04/18 10:46:33;;;;;;;6.80;3.40;;;;;;;19.01;30.24;99567.06;4995791;28;20042;-52
2022/04/18 10:49:00;;;;;;;5.95;3.58;;;;;;;18.45;29.05;99567.66;5000040;28;20066;-51
2022/04/18 10:51:26;;;;;;;5.72;3.60;;;;;;;17.59;30.44;99564.50;4989947;28;20046;-53
2022/04/18 10:54:09;;;;;;;8.25;4.18;;;;;;;16.54;32.69;99558.13;5004026;28;20485;-50
2022/04/18 10:56:51;;;;;;;5.53;3.28;;;;;;;16.47;31.97;99552.97;4987958;28;20464;-52
2022/04/18 10:59:18;;;;;;;6.97;3.80;;;;;;;16.41;32.12;99559.50;4996463;28;20037;-50
2022/04/18 11:01:43;;;;;;;6.57;3.80;;;;;;;15.51;32.71;99551.88;4998775;28;20034;-54
2022/04/18 11:04:12;;;;;;;7.25;3.50;;;;;;;16.30;32.74;99539.78;4997044;28;20088;-51
2022/04/18 11:06:38;;;;;;;6.55;3.22;;;;;;;18.10;29.88;99545.19;4989325;28;20037;-52
2022/04/18 11:09:08;;;;;;;6.53;3.80;;;;;;;16.85;31.07;99537.25;5001300;28;20034;-50
2022/04/18 11:11:41;;;;;;;6.57;3.63;;;;;;;17.25;31.11;99541.66;4995936;28;20041;-50
2022/04/18 11:14:52;;;;;;;6.38;3.72;;;;;;;18.13;30.44;99527.53;4989922;28;20054;-51
2022/04/18 11:17:28;;;;;;;5.25;3.58;;;;;;;19.34;28.83;99531.88;5003798;28;20054;-53
2022/04/18 11:19:53;;;;;;;6.50;3.30;;;;;;;19.30;28.33;99528.94;4998784;28;20037;-49
2022/04/18 11:22:20;;;;;;;6.80;3.72;;;;;;;19.57;27.71;99527.50;4990689;28;20042;-52
2022/04/18 11:24:52;;;;;;;6.25;3.47;;;;;;;20.26;27.82;99527.75;4992207;28;20033;-53
2022/04/18 11:27:22;;;;;;;5.82;3.10;;;;;;;19.83;27.46;99525.22;4996638;28;20042;-51
2022/04/18 11:29:53;;;;;;;5.55;3.17;;;;;;;20.02;27.05;99527.91;4990168;28;20026;-52
2022/04/18 11:32:24;;;;;;;5.22;3.03;;;;;;;20.47;27.08;99523.56;4992171;28;20057;-51
2022/04/18 11:34:50;;;;;;;6.85;3.67;;;;;;;20.04;25.96;99520.22;4994393;28;20576;-53
2022/04/18 11:37:29;;;;;;;5.55;3.38;;;;;;;19.15;27.19;99515.56;4989042;28;20041;-51
2022/04/18 11:39:56;;;;;;;7.38;3.38;;;;;;;17.76;29.32;99509.91;4999256;28;20429;-51
2022/04/18 11:42:27;;;;;;;6.57;3.00;;;;;;;19.20;28.35;99504.63;4993389;28;20085;-51
2022/04/18 11:44:54;;;;;;;5.97;3.35;;;;;;;19.76;26.83;99503.03;4997319;28;20023;-50
2022/04/18 11:47:24;;;;;;;8.20;3.95;;;;;;;19.91;27.04;99508.22;4989088;28;20520;-50
2022/04/18 11:49:53;;;;;;;4.93;3.00;;;;;;;19.22;27.24;99498.91;4989081;28;20112;-52
2022/04/18 11:52:21;;;;;;;5.72;3.20;;;;;;;17.24;29.12;99498.59;4987530;28;20046;-54
2022/04/18 11:55:07;;;;;;;5.00;3.10;;;;;;;17.74;28.02;99499.34;4989781;28;20019;-52
2022/04/18 11:57:36;;;;;;;8.88;3.40;;;;;;;17.74;27.82;99493.91;4993638;28;20163;-51